sensor_id;sensor_type;location;lat;lon;timestamp;temperature;humidity
23987;DHT22;12514;52.140;5.602;2022-09-25T00:00:55;10.60;99.90
23987;DHT22;12514;52.140;5.602;2022-09-25T00:03:22;10.70;99.90
23987;DHT22;12514;52.140;5.602;2022-09-25T00:05:49;10.80;99.90
23987;DHT22;12514;52.140;5.602;2022-09-25T00:08:16;10.90;99.90
23987;DHT22;12514;52.140;5.602;2022-09-25T00:10:44;10.70;99.90
23987;DHT22;12514;52.140;5.602;2022-09-25T00:13:11;10.90;99.90
23987;DHT22;12514;52.140;5.602;2022-09-25T00:15:37;10.80;99.90
23987;DHT22;12514;52.140;5.602;2022-09-25T00:18:02;10.80;99.90
23987;DHT22;12514;52.140;5.602;2022-09-25T00:20:28;10.80;99.90
23987;DHT22;12514;52.140;5.602;2022-09-25T00:22:54;10.50;99.90
23987;DHT22;12514;52.140;5.602;2022-09-25T00:28:42;10.60;99.90
23987;DHT22;12514;52.140;5.602;2022-09-25T00:31:09;10.70;99.90
23987;DHT22;12514;52.140;5.602;2022-09-25T00:33:35;10.60;99.90
23987;DHT22;12514;52.140;5.602;2022-09-25T00:36:02;10.70;99.90
23987;DHT22;12514;52.140;5.602;2022-09-25T00:38:30;10.70;99.90
23987;DHT22;12514;52.140;5.602;2022-09-25T00:40:56;10.70;99.90
23987;DHT22;12514;52.140;5.602;2022-09-25T00:43:38;10.60;99.90
23987;DHT22;12514;52.140;5.602;2022-09-25T00:46:29;10.40;99.90
23987;DHT22;12514;52.140;5.602;2022-09-25T00:49:03;10.30;99.90
23987;DHT22;12514;52.140;5.602;2022-09-25T00:51:44;10.40;99.90
23987;DHT22;12514;52.140;5.602;2022-09-25T00:54:21;10.50;99.90
23987;DHT22;12514;52.140;5.602;2022-09-25T00:56:49;10.50;99.90
23987;DHT22;12514;52.140;5.602;2022-09-25T00:59:18;10.50;99.90
23987;DHT22;12514;52.140;5.602;2022-09-25T01:01:45;10.50;99.90
23987;DHT22;12514;52.140;5.602;2022-09-25T01:04:11;10.50;99.90
23987;DHT22;12514;52.140;5.602;2022-09-25T01:06:38;10.50;99.90
23987;DHT22;12514;52.140;5.602;2022-09-25T01:09:05;10.50;99.90
23987;DHT22;12514;52.140;5.602;2022-09-25T01:11:30;10.50;99.90
23987;DHT22;12514;52.140;5.602;2022-09-25T01:13:59;10.50;99.90
23987;DHT22;12514;52.140;5.602;2022-09-25T01:16:56;10.50;99.90
23987;DHT22;12514;52.140;5.602;2022-09-25T01:27:28;10.40;99.90
23987;DHT22;12514;52.140;5.602;2022-09-25T01:37:55;10.30;99.90
23987;DHT22;12514;52.140;5.602;2022-09-25T01:40:28;10.20;99.90
23987;DHT22;12514;52.140;5.602;2022-09-25T01:43:28;10.30;99.90
23987;DHT22;12514;52.140;5.602;2022-09-25T01:45:59;10.30;99.90
23987;DHT22;12514;52.140;5.602;2022-09-25T01:48:27;10.20;99.90
23987;DHT22;12514;52.140;5.602;2022-09-25T01:51:24;10.30;99.90
23987;DHT22;12514;52.140;5.602;2022-09-25T01:59:52;10.20;99.90
23987;DHT22;12514;52.140;5.602;2022-09-25T02:02:22;10.00;99.90
23987;DHT22;12514;52.140;5.602;2022-09-25T02:04:55;10.10;99.90
23987;DHT22;12514;52.140;5.602;2022-09-25T02:07:27;10.10;99.90
23987;DHT22;12514;52.140;5.602;2022-09-25T02:13:17;10.00;99.90
23987;DHT22;12514;52.140;5.602;2022-09-25T02:15:51;10.00;99.90
23987;DHT22;12514;52.140;5.602;2022-09-25T02:18:20;10.00;99.90
23987;DHT22;12514;52.140;5.602;2022-09-25T02:21:13;9.90;99.90
23987;DHT22;12514;52.140;5.602;2022-09-25T02:27:33;9.80;99.90
23987;DHT22;12514;52.140;5.602;2022-09-25T02:29:59;9.80;99.90
23987;DHT22;12514;52.140;5.602;2022-09-25T02:32:28;9.60;99.90
23987;DHT22;12514;52.140;5.602;2022-09-25T02:34:56;9.60;99.90
23987;DHT22;12514;52.140;5.602;2022-09-25T02:37:22;9.70;99.90
23987;DHT22;12514;52.140;5.602;2022-09-25T02:43:38;9.70;99.90
23987;DHT22;12514;52.140;5.602;2022-09-25T02:46:25;9.60;99.90
23987;DHT22;12514;52.140;5.602;2022-09-25T02:51:45;9.50;99.90
23987;DHT22;12514;52.140;5.602;2022-09-25T02:54:15;9.50;99.90
23987;DHT22;12514;52.140;5.602;2022-09-25T02:57:03;9.50;99.90
23987;DHT22;12514;52.140;5.602;2022-09-25T02:59:41;9.50;99.90
23987;DHT22;12514;52.140;5.602;2022-09-25T03:02:10;9.50;99.90
23987;DHT22;12514;52.140;5.602;2022-09-25T03:04:37;9.10;99.90
23987;DHT22;12514;52.140;5.602;2022-09-25T03:07:04;8.90;99.90
23987;DHT22;12514;52.140;5.602;2022-09-25T03:09:34;9.10;99.90
23987;DHT22;12514;52.140;5.602;2022-09-25T03:12:02;9.20;99.90
23987;DHT22;12514;52.140;5.602;2022-09-25T03:14:29;9.20;99.90
23987;DHT22;12514;52.140;5.602;2022-09-25T03:16:56;9.20;99.90
23987;DHT22;12514;52.140;5.602;2022-09-25T03:19:26;9.20;99.90
23987;DHT22;12514;52.140;5.602;2022-09-25T03:21:52;9.20;99.90
23987;DHT22;12514;52.140;5.602;2022-09-25T03:24:19;9.30;99.90
23987;DHT22;12514;52.140;5.602;2022-09-25T03:26:44;9.20;99.90
23987;DHT22;12514;52.140;5.602;2022-09-25T03:29:11;8.90;99.90
23987;DHT22;12514;52.140;5.602;2022-09-25T03:31:37;9.00;99.90
23987;DHT22;12514;52.140;5.602;2022-09-25T03:34:04;9.00;99.90
23987;DHT22;12514;52.140;5.602;2022-09-25T03:36:30;9.10;99.90
23987;DHT22;12514;52.140;5.602;2022-09-25T03:38:57;9.20;99.90
23987;DHT22;12514;52.140;5.602;2022-09-25T03:41:33;9.10;99.90
23987;DHT22;12514;52.140;5.602;2022-09-25T03:44:00;9.10;99.90
23987;DHT22;12514;52.140;5.602;2022-09-25T03:46:31;9.00;99.90
23987;DHT22;12514;52.140;5.602;2022-09-25T03:48:57;9.00;99.90
23987;DHT22;12514;52.140;5.602;2022-09-25T03:51:24;8.90;99.90
23987;DHT22;12514;52.140;5.602;2022-09-25T03:53:50;8.90;99.90
23987;DHT22;12514;52.140;5.602;2022-09-25T03:59:38;8.90;99.90
23987;DHT22;12514;52.140;5.602;2022-09-25T04:02:03;8.90;99.90
23987;DHT22;12514;52.140;5.602;2022-09-25T04:04:29;8.90;99.90
23987;DHT22;12514;52.140;5.602;2022-09-25T04:06:55;8.80;99.90
23987;DHT22;12514;52.140;5.602;2022-09-25T04:09:20;8.90;99.90
23987;DHT22;12514;52.140;5.602;2022-09-25T04:11:46;8.80;99.90
23987;DHT22;12514;52.140;5.602;2022-09-25T04:14:11;8.90;99.90
23987;DHT22;12514;52.140;5.602;2022-09-25T04:16:37;8.90;99.90
23987;DHT22;12514;52.140;5.602;2022-09-25T04:19:02;8.90;99.90
23987;DHT22;12514;52.140;5.602;2022-09-25T04:21:28;8.90;99.90
23987;DHT22;12514;52.140;5.602;2022-09-25T04:23:54;8.80;99.90
23987;DHT22;12514;52.140;5.602;2022-09-25T04:30:00;8.80;99.90
23987;DHT22;12514;52.140;5.602;2022-09-25T04:32:26;8.70;99.90
23987;DHT22;12514;52.140;5.602;2022-09-25T04:35:10;8.80;99.90
23987;DHT22;12514;52.140;5.602;2022-09-25T04:37:36;8.70;99.90
23987;DHT22;12514;52.140;5.602;2022-09-25T04:40:01;8.90;99.90
23987;DHT22;12514;52.140;5.602;2022-09-25T04:42:27;8.90;99.90
23987;DHT22;12514;52.140;5.602;2022-09-25T04:44:54;9.00;99.90
23987;DHT22;12514;52.140;5.602;2022-09-25T04:47:21;9.00;99.90
23987;DHT22;12514;52.140;5.602;2022-09-25T04:49:47;9.00;99.90
23987;DHT22;12514;52.140;5.602;2022-09-25T04:52:17;9.10;99.90
23987;DHT22;12514;52.140;5.602;2022-09-25T04:54:43;9.20;99.90
23987;DHT22;12514;52.140;5.602;2022-09-25T04:57:16;9.20;99.90
23987;DHT22;12514;52.140;5.602;2022-09-25T04:59:43;9.10;99.90
23987;DHT22;12514;52.140;5.602;2022-09-25T05:02:09;9.10;99.90
23987;DHT22;12514;52.140;5.602;2022-09-25T05:04:35;9.10;99.90
23987;DHT22;12514;52.140;5.602;2022-09-25T05:07:01;9.10;99.90
23987;DHT22;12514;52.140;5.602;2022-09-25T05:09:26;9.00;99.90
23987;DHT22;12514;52.140;5.602;2022-09-25T05:11:53;9.00;99.90
23987;DHT22;12514;52.140;5.602;2022-09-25T05:14:18;9.00;99.90
23987;DHT22;12514;52.140;5.602;2022-09-25T05:16:47;9.00;99.90
23987;DHT22;12514;52.140;5.602;2022-09-25T05:19:13;9.00;99.90
23987;DHT22;12514;52.140;5.602;2022-09-25T05:21:40;9.00;99.90
23987;DHT22;12514;52.140;5.602;2022-09-25T05:24:05;9.00;99.90
23987;DHT22;12514;52.140;5.602;2022-09-25T05:29:54;9.10;99.90
23987;DHT22;12514;52.140;5.602;2022-09-25T05:32:21;9.00;99.90
23987;DHT22;12514;52.140;5.602;2022-09-25T05:34:47;8.90;99.90
23987;DHT22;12514;52.140;5.602;2022-09-25T05:37:13;8.90;99.90
23987;DHT22;12514;52.140;5.602;2022-09-25T05:39:38;8.90;99.90
23987;DHT22;12514;52.140;5.602;2022-09-25T05:42:04;9.00;99.90
23987;DHT22;12514;52.140;5.602;2022-09-25T05:44:30;8.90;99.90
23987;DHT22;12514;52.140;5.602;2022-09-25T05:46:55;8.90;99.90
23987;DHT22;12514;52.140;5.602;2022-09-25T05:49:21;8.90;99.90
23987;DHT22;12514;52.140;5.602;2022-09-25T05:51:47;8.90;99.90
23987;DHT22;12514;52.140;5.602;2022-09-25T05:54:13;9.00;99.90
23987;DHT22;12514;52.140;5.602;2022-09-25T06:00:02;8.90;99.90
23987;DHT22;12514;52.140;5.602;2022-09-25T06:02:28;9.00;99.90
23987;DHT22;12514;52.140;5.602;2022-09-25T06:04:53;8.90;99.90
23987;DHT22;12514;52.140;5.602;2022-09-25T06:07:19;9.00;99.90
23987;DHT22;12514;52.140;5.602;2022-09-25T06:09:45;8.80;99.90
23987;DHT22;12514;52.140;5.602;2022-09-25T06:12:10;8.90;99.90
23987;DHT22;12514;52.140;5.602;2022-09-25T06:14:36;9.00;99.90
23987;DHT22;12514;52.140;5.602;2022-09-25T06:17:02;8.90;99.90
23987;DHT22;12514;52.140;5.602;2022-09-25T06:19:28;8.90;99.90
23987;DHT22;12514;52.140;5.602;2022-09-25T06:21:55;8.90;99.90
23987;DHT22;12514;52.140;5.602;2022-09-25T06:24:22;9.00;99.90
23987;DHT22;12514;52.140;5.602;2022-09-25T06:30:09;9.10;99.90
23987;DHT22;12514;52.140;5.602;2022-09-25T06:32:35;9.20;99.90
23987;DHT22;12514;52.140;5.602;2022-09-25T06:35:00;9.30;99.90
23987;DHT22;12514;52.140;5.602;2022-09-25T06:37:26;9.30;99.90
23987;DHT22;12514;52.140;5.602;2022-09-25T06:39:52;9.40;99.90
23987;DHT22;12514;52.140;5.602;2022-09-25T06:42:17;9.60;99.90
23987;DHT22;12514;52.140;5.602;2022-09-25T06:44:43;9.60;99.90
23987;DHT22;12514;52.140;5.602;2022-09-25T06:47:09;9.80;99.90
23987;DHT22;12514;52.140;5.602;2022-09-25T06:49:37;10.00;99.90
23987;DHT22;12514;52.140;5.602;2022-09-25T06:52:03;10.00;99.90
23987;DHT22;12514;52.140;5.602;2022-09-25T06:54:32;10.10;99.90
23987;DHT22;12514;52.140;5.602;2022-09-25T07:00:19;10.10;99.90
23987;DHT22;12514;52.140;5.602;2022-09-25T07:02:45;10.40;99.90
23987;DHT22;12514;52.140;5.602;2022-09-25T07:05:29;10.40;99.90
23987;DHT22;12514;52.140;5.602;2022-09-25T07:07:55;10.70;99.90
23987;DHT22;12514;52.140;5.602;2022-09-25T07:10:21;10.70;99.90
23987;DHT22;12514;52.140;5.602;2022-09-25T07:12:46;10.70;99.90
23987;DHT22;12514;52.140;5.602;2022-09-25T07:15:12;10.90;99.90
23987;DHT22;12514;52.140;5.602;2022-09-25T07:17:43;10.80;99.90
23987;DHT22;12514;52.140;5.602;2022-09-25T07:20:09;10.90;99.90
23987;DHT22;12514;52.140;5.602;2022-09-25T07:22:38;11.00;99.90
23987;DHT22;12514;52.140;5.602;2022-09-25T07:25:05;11.00;99.90
23987;DHT22;12514;52.140;5.602;2022-09-25T07:27:31;11.10;99.90
23987;DHT22;12514;52.140;5.602;2022-09-25T07:29:56;11.20;99.90
23987;DHT22;12514;52.140;5.602;2022-09-25T07:32:22;11.30;99.90
23987;DHT22;12514;52.140;5.602;2022-09-25T07:34:48;11.30;99.90
23987;DHT22;12514;52.140;5.602;2022-09-25T07:37:14;11.40;99.90
23987;DHT22;12514;52.140;5.602;2022-09-25T07:39:40;11.40;99.90
23987;DHT22;12514;52.140;5.602;2022-09-25T07:45:29;11.60;99.90
23987;DHT22;12514;52.140;5.602;2022-09-25T07:47:59;11.70;99.90
23987;DHT22;12514;52.140;5.602;2022-09-25T07:50:29;11.80;99.90
23987;DHT22;12514;52.140;5.602;2022-09-25T07:52:55;11.90;99.90
23987;DHT22;12514;52.140;5.602;2022-09-25T07:55:21;11.90;99.90
23987;DHT22;12514;52.140;5.602;2022-09-25T07:57:47;12.00;99.90
23987;DHT22;12514;52.140;5.602;2022-09-25T08:00:13;12.20;99.90
23987;DHT22;12514;52.140;5.602;2022-09-25T08:02:39;12.30;99.90
23987;DHT22;12514;52.140;5.602;2022-09-25T08:05:05;12.30;99.90
23987;DHT22;12514;52.140;5.602;2022-09-25T08:07:31;12.40;99.90
23987;DHT22;12514;52.140;5.602;2022-09-25T08:09:56;12.60;99.90
23987;DHT22;12514;52.140;5.602;2022-09-25T08:15:44;12.70;99.90
23987;DHT22;12514;52.140;5.602;2022-09-25T08:18:09;12.70;99.90
23987;DHT22;12514;52.140;5.602;2022-09-25T08:20:35;12.80;99.90
23987;DHT22;12514;52.140;5.602;2022-09-25T08:23:04;12.90;99.90
23987;DHT22;12514;52.140;5.602;2022-09-25T08:25:30;13.00;99.90
23987;DHT22;12514;52.140;5.602;2022-09-25T08:27:56;13.20;99.90
23987;DHT22;12514;52.140;5.602;2022-09-25T08:30:21;13.20;99.90
23987;DHT22;12514;52.140;5.602;2022-09-25T08:32:47;13.30;99.90
23987;DHT22;12514;52.140;5.602;2022-09-25T08:35:13;13.30;99.90
23987;DHT22;12514;52.140;5.602;2022-09-25T08:37:40;13.20;99.90
23987;DHT22;12514;52.140;5.602;2022-09-25T08:47:04;13.50;99.90
23987;DHT22;12514;52.140;5.602;2022-09-25T08:50:13;13.60;99.90
23987;DHT22;12514;52.140;5.602;2022-09-25T08:52:41;13.60;99.90
23987;DHT22;12514;52.140;5.602;2022-09-25T08:55:40;13.70;99.90
23987;DHT22;12514;52.140;5.602;2022-09-25T08:58:32;13.70;99.90
23987;DHT22;12514;52.140;5.602;2022-09-25T09:01:05;13.90;99.90
23987;DHT22;12514;52.140;5.602;2022-09-25T09:03:32;13.90;99.90
23987;DHT22;12514;52.140;5.602;2022-09-25T09:06:11;13.90;99.90
23987;DHT22;12514;52.140;5.602;2022-09-25T09:08:40;14.20;99.90
23987;DHT22;12514;52.140;5.602;2022-09-25T09:11:17;14.20;99.90
23987;DHT22;12514;52.140;5.602;2022-09-25T09:14:17;14.30;99.90
23987;DHT22;12514;52.140;5.602;2022-09-25T09:19:16;14.60;99.90
23987;DHT22;12514;52.140;5.602;2022-09-25T09:21:57;14.80;99.90
23987;DHT22;12514;52.140;5.602;2022-09-25T09:30:16;14.60;99.90
23987;DHT22;12514;52.140;5.602;2022-09-25T09:49:28;14.00;99.90
23987;DHT22;12514;52.140;5.602;2022-09-25T09:52:35;14.00;99.90
23987;DHT22;12514;52.140;5.602;2022-09-25T09:55:05;14.00;99.90
23987;DHT22;12514;52.140;5.602;2022-09-25T10:01:00;14.20;99.90
23987;DHT22;12514;52.140;5.602;2022-09-25T10:03:33;14.10;99.90
23987;DHT22;12514;52.140;5.602;2022-09-25T10:06:02;14.30;99.90
23987;DHT22;12514;52.140;5.602;2022-09-25T10:08:28;14.40;99.90
23987;DHT22;12514;52.140;5.602;2022-09-25T10:10:54;14.50;99.90
23987;DHT22;12514;52.140;5.602;2022-09-25T10:13:31;14.60;99.90
23987;DHT22;12514;52.140;5.602;2022-09-25T10:21:21;14.60;99.90
23987;DHT22;12514;52.140;5.602;2022-09-25T10:23:54;14.90;99.90
23987;DHT22;12514;52.140;5.602;2022-09-25T10:26:30;15.20;99.90
23987;DHT22;12514;52.140;5.602;2022-09-25T10:28:58;15.10;99.90
23987;DHT22;12514;52.140;5.602;2022-09-25T10:31:31;15.30;99.90
23987;DHT22;12514;52.140;5.602;2022-09-25T10:34:00;15.20;99.90
23987;DHT22;12514;52.140;5.602;2022-09-25T10:36:47;15.30;99.90
23987;DHT22;12514;52.140;5.602;2022-09-25T10:39:30;15.40;99.90
23987;DHT22;12514;52.140;5.602;2022-09-25T10:41:56;15.40;99.90
23987;DHT22;12514;52.140;5.602;2022-09-25T10:44:35;15.60;99.90
23987;DHT22;12514;52.140;5.602;2022-09-25T10:50:13;15.70;99.90
23987;DHT22;12514;52.140;5.602;2022-09-25T10:52:45;15.80;99.90
23987;DHT22;12514;52.140;5.602;2022-09-25T11:00:55;15.40;99.90
23987;DHT22;12514;52.140;5.602;2022-09-25T11:03:31;14.90;99.90
23987;DHT22;12514;52.140;5.602;2022-09-25T11:06:23;14.70;99.90
23987;DHT22;12514;52.140;5.602;2022-09-25T11:09:13;14.60;99.90
23987;DHT22;12514;52.140;5.602;2022-09-25T11:15:04;14.90;99.90
23987;DHT22;12514;52.140;5.602;2022-09-25T11:17:36;15.10;99.90
23987;DHT22;12514;52.140;5.602;2022-09-25T11:23:27;15.50;99.90
23987;DHT22;12514;52.140;5.602;2022-09-25T11:26:05;15.60;99.90
23987;DHT22;12514;52.140;5.602;2022-09-25T11:31:56;16.00;99.90
23987;DHT22;12514;52.140;5.602;2022-09-25T11:35:02;16.00;99.90
23987;DHT22;12514;52.140;5.602;2022-09-25T11:37:34;16.00;99.90
23987;DHT22;12514;52.140;5.602;2022-09-25T11:40:23;16.00;99.90
23987;DHT22;12514;52.140;5.602;2022-09-25T11:49:38;15.40;99.90
23987;DHT22;12514;52.140;5.602;2022-09-25T11:52:33;15.40;99.90
23987;DHT22;12514;52.140;5.602;2022-09-25T12:04:04;16.50;99.90
23987;DHT22;12514;52.140;5.602;2022-09-25T12:15:52;16.30;99.90
23987;DHT22;12514;52.140;5.602;2022-09-25T12:19:08;16.30;99.90
23987;DHT22;12514;52.140;5.602;2022-09-25T12:24:10;16.90;99.90
23987;DHT22;12514;52.140;5.602;2022-09-25T12:26:47;16.80;99.90
23987;DHT22;12514;52.140;5.602;2022-09-25T12:32:16;17.00;99.90
23987;DHT22;12514;52.140;5.602;2022-09-25T12:38:03;16.80;99.90
23987;DHT22;12514;52.140;5.602;2022-09-25T12:43:20;16.90;99.90
23987;DHT22;12514;52.140;5.602;2022-09-25T12:51:46;16.00;99.90
23987;DHT22;12514;52.140;5.602;2022-09-25T12:54:33;15.90;99.90
23987;DHT22;12514;52.140;5.602;2022-09-25T13:00:27;15.60;99.90
23987;DHT22;12514;52.140;5.602;2022-09-25T13:03:16;15.50;99.90
23987;DHT22;12514;52.140;5.602;2022-09-25T13:05:59;15.40;99.90
23987;DHT22;12514;52.140;5.602;2022-09-25T13:08:38;15.60;99.90
23987;DHT22;12514;52.140;5.602;2022-09-25T13:11:13;15.50;99.90
23987;DHT22;12514;52.140;5.602;2022-09-25T13:13:50;15.40;99.90
23987;DHT22;12514;52.140;5.602;2022-09-25T13:16:19;15.40;99.90
23987;DHT22;12514;52.140;5.602;2022-09-25T13:19:38;15.30;99.90
23987;DHT22;12514;52.140;5.602;2022-09-25T13:22:02;15.10;99.90
23987;DHT22;12514;52.140;5.602;2022-09-25T13:24:31;15.80;99.90
23987;DHT22;12514;52.140;5.602;2022-09-25T13:30:27;14.70;99.90
23987;DHT22;12514;52.140;5.602;2022-09-25T13:33:00;14.90;99.90
23987;DHT22;12514;52.140;5.602;2022-09-25T13:35:31;14.80;99.90
23987;DHT22;12514;52.140;5.602;2022-09-25T13:38:14;15.00;99.90
23987;DHT22;12514;52.140;5.602;2022-09-25T13:41:07;15.10;99.90
23987;DHT22;12514;52.140;5.602;2022-09-25T14:06:00;15.40;99.90
23987;DHT22;12514;52.140;5.602;2022-09-25T14:08:28;15.50;99.90
23987;DHT22;12514;52.140;5.602;2022-09-25T14:10:56;15.30;99.90
23987;DHT22;12514;52.140;5.602;2022-09-25T14:13:24;15.40;99.90
23987;DHT22;12514;52.140;5.602;2022-09-25T14:15:52;15.50;99.90
23987;DHT22;12514;52.140;5.602;2022-09-25T14:18:38;15.60;99.90
23987;DHT22;12514;52.140;5.602;2022-09-25T14:21:04;15.60;99.90
23987;DHT22;12514;52.140;5.602;2022-09-25T14:23:49;15.70;99.90
23987;DHT22;12514;52.140;5.602;2022-09-25T14:28:48;15.70;99.90
23987;DHT22;12514;52.140;5.602;2022-09-25T14:31:24;15.70;99.90
23987;DHT22;12514;52.140;5.602;2022-09-25T14:39:27;15.50;99.90
23987;DHT22;12514;52.140;5.602;2022-09-25T14:42:10;15.50;99.90
23987;DHT22;12514;52.140;5.602;2022-09-25T14:47:35;15.80;99.90
23987;DHT22;12514;52.140;5.602;2022-09-25T14:50:02;15.70;99.90
23987;DHT22;12514;52.140;5.602;2022-09-25T14:52:30;15.40;99.90
23987;DHT22;12514;52.140;5.602;2022-09-25T14:55:00;15.60;99.90
23987;DHT22;12514;52.140;5.602;2022-09-25T14:57:30;15.50;99.90
23987;DHT22;12514;52.140;5.602;2022-09-25T14:59:59;15.50;99.90
23987;DHT22;12514;52.140;5.602;2022-09-25T15:02:40;15.50;99.90
23987;DHT22;12514;52.140;5.602;2022-09-25T15:07:51;15.40;99.90
23987;DHT22;12514;52.140;5.602;2022-09-25T15:10:33;15.40;99.90
23987;DHT22;12514;52.140;5.602;2022-09-25T15:16:26;15.20;99.90
23987;DHT22;12514;52.140;5.602;2022-09-25T15:19:17;15.40;99.90
23987;DHT22;12514;52.140;5.602;2022-09-25T15:21:45;15.40;99.90
23987;DHT22;12514;52.140;5.602;2022-09-25T15:24:17;15.60;99.90
23987;DHT22;12514;52.140;5.602;2022-09-25T15:26:48;15.70;99.90
23987;DHT22;12514;52.140;5.602;2022-09-25T15:32:38;15.70;99.90
23987;DHT22;12514;52.140;5.602;2022-09-25T15:35:24;15.40;99.90
23987;DHT22;12514;52.140;5.602;2022-09-25T15:38:02;15.20;99.90
23987;DHT22;12514;52.140;5.602;2022-09-25T15:40:29;15.30;99.90
23987;DHT22;12514;52.140;5.602;2022-09-25T15:42:55;15.30;99.90
23987;DHT22;12514;52.140;5.602;2022-09-25T15:48:12;15.60;99.90
23987;DHT22;12514;52.140;5.602;2022-09-25T15:50:42;15.60;99.90
23987;DHT22;12514;52.140;5.602;2022-09-25T15:53:20;15.60;99.90
23987;DHT22;12514;52.140;5.602;2022-09-25T15:55:48;15.60;99.90
23987;DHT22;12514;52.140;5.602;2022-09-25T15:58:15;15.50;99.90
23987;DHT22;12514;52.140;5.602;2022-09-25T16:00:58;15.60;99.90
23987;DHT22;12514;52.140;5.602;2022-09-25T16:03:52;15.60;99.90
23987;DHT22;12514;52.140;5.602;2022-09-25T16:06:42;15.60;99.90
23987;DHT22;12514;52.140;5.602;2022-09-25T16:11:35;15.40;99.90
23987;DHT22;12514;52.140;5.602;2022-09-25T16:14:27;15.20;99.90
23987;DHT22;12514;52.140;5.602;2022-09-25T16:16:56;15.20;99.90
23987;DHT22;12514;52.140;5.602;2022-09-25T16:21:52;15.20;99.90
23987;DHT22;12514;52.140;5.602;2022-09-25T16:24:25;15.20;99.90
23987;DHT22;12514;52.140;5.602;2022-09-25T16:26:58;15.00;99.90
23987;DHT22;12514;52.140;5.602;2022-09-25T16:29:27;14.90;99.90
23987;DHT22;12514;52.140;5.602;2022-09-25T16:32:17;14.70;99.90
23987;DHT22;12514;52.140;5.602;2022-09-25T16:34:58;14.80;99.90
23987;DHT22;12514;52.140;5.602;2022-09-25T16:37:33;14.80;99.90
23987;DHT22;12514;52.140;5.602;2022-09-25T16:42:41;14.60;99.90
23987;DHT22;12514;52.140;5.602;2022-09-25T16:45:20;14.70;99.90
23987;DHT22;12514;52.140;5.602;2022-09-25T16:47:49;14.60;99.90
23987;DHT22;12514;52.140;5.602;2022-09-25T16:50:15;14.50;99.90
23987;DHT22;12514;52.140;5.602;2022-09-25T16:52:41;14.50;99.90
23987;DHT22;12514;52.140;5.602;2022-09-25T16:55:24;14.30;99.90
23987;DHT22;12514;52.140;5.602;2022-09-25T16:57:52;14.30;99.90
23987;DHT22;12514;52.140;5.602;2022-09-25T17:00:24;14.30;99.90
23987;DHT22;12514;52.140;5.602;2022-09-25T17:02:50;14.30;99.90
23987;DHT22;12514;52.140;5.602;2022-09-25T17:05:22;14.30;99.90
23987;DHT22;12514;52.140;5.602;2022-09-25T17:07:55;14.20;99.90
23987;DHT22;12514;52.140;5.602;2022-09-25T17:10:24;14.20;99.90
23987;DHT22;12514;52.140;5.602;2022-09-25T17:12:52;14.30;99.90
23987;DHT22;12514;52.140;5.602;2022-09-25T17:15:26;14.50;99.90
23987;DHT22;12514;52.140;5.602;2022-09-25T17:17:54;14.70;99.90
23987;DHT22;12514;52.140;5.602;2022-09-25T17:20:22;14.60;99.90
23987;DHT22;12514;52.140;5.602;2022-09-25T17:22:49;14.70;99.90
23987;DHT22;12514;52.140;5.602;2022-09-25T17:25:46;14.70;99.90
23987;DHT22;12514;52.140;5.602;2022-09-25T17:31:34;14.60;99.90
23987;DHT22;12514;52.140;5.602;2022-09-25T17:34:01;14.40;99.90
23987;DHT22;12514;52.140;5.602;2022-09-25T17:36:26;14.20;99.90
23987;DHT22;12514;52.140;5.602;2022-09-25T17:38:52;14.20;99.90
23987;DHT22;12514;52.140;5.602;2022-09-25T17:41:29;14.20;99.90
23987;DHT22;12514;52.140;5.602;2022-09-25T17:47:18;14.20;99.90
23987;DHT22;12514;52.140;5.602;2022-09-25T17:49:46;14.30;99.90
23987;DHT22;12514;52.140;5.602;2022-09-25T17:52:15;14.30;99.90
23987;DHT22;12514;52.140;5.602;2022-09-25T17:54:44;14.20;99.90
23987;DHT22;12514;52.140;5.602;2022-09-25T17:57:10;14.20;99.90
23987;DHT22;12514;52.140;5.602;2022-09-25T18:02:57;14.00;99.90
23987;DHT22;12514;52.140;5.602;2022-09-25T18:05:23;13.80;99.90
23987;DHT22;12514;52.140;5.602;2022-09-25T18:07:50;13.70;99.90
23987;DHT22;12514;52.140;5.602;2022-09-25T18:10:16;13.70;99.90
23987;DHT22;12514;52.140;5.602;2022-09-25T18:12:42;13.70;99.90
23987;DHT22;12514;52.140;5.602;2022-09-25T18:18:29;13.50;99.90
23987;DHT22;12514;52.140;5.602;2022-09-25T18:21:16;13.30;99.90
23987;DHT22;12514;52.140;5.602;2022-09-25T18:24:01;13.30;99.90
23987;DHT22;12514;52.140;5.602;2022-09-25T18:26:28;13.30;99.90
23987;DHT22;12514;52.140;5.602;2022-09-25T18:28:53;13.30;99.90
23987;DHT22;12514;52.140;5.602;2022-09-25T18:31:19;13.30;99.90
23987;DHT22;12514;52.140;5.602;2022-09-25T18:33:44;13.30;99.90
23987;DHT22;12514;52.140;5.602;2022-09-25T18:36:10;13.30;99.90
23987;DHT22;12514;52.140;5.602;2022-09-25T18:38:36;13.40;99.90
23987;DHT22;12514;52.140;5.602;2022-09-25T18:41:03;13.30;99.90
23987;DHT22;12514;52.140;5.602;2022-09-25T18:43:29;13.40;99.90
23987;DHT22;12514;52.140;5.602;2022-09-25T18:45:55;13.40;99.90
23987;DHT22;12514;52.140;5.602;2022-09-25T18:48:20;13.50;99.90
23987;DHT22;12514;52.140;5.602;2022-09-25T18:50:48;13.40;99.90
23987;DHT22;12514;52.140;5.602;2022-09-25T18:53:14;13.40;99.90
23987;DHT22;12514;52.140;5.602;2022-09-25T18:55:40;13.30;99.90
23987;DHT22;12514;52.140;5.602;2022-09-25T18:58:08;13.40;99.90
23987;DHT22;12514;52.140;5.602;2022-09-25T19:03:56;13.40;99.90
23987;DHT22;12514;52.140;5.602;2022-09-25T19:06:22;13.40;99.90
23987;DHT22;12514;52.140;5.602;2022-09-25T19:08:52;13.30;99.90
23987;DHT22;12514;52.140;5.602;2022-09-25T19:11:19;13.10;99.90
23987;DHT22;12514;52.140;5.602;2022-09-25T19:13:45;13.10;99.90
23987;DHT22;12514;52.140;5.602;2022-09-25T19:16:11;13.10;99.90
23987;DHT22;12514;52.140;5.602;2022-09-25T19:18:38;13.10;99.90
23987;DHT22;12514;52.140;5.602;2022-09-25T19:21:04;13.00;99.90
23987;DHT22;12514;52.140;5.602;2022-09-25T19:23:32;13.00;99.90
23987;DHT22;12514;52.140;5.602;2022-09-25T19:26:01;13.00;99.90
23987;DHT22;12514;52.140;5.602;2022-09-25T19:28:29;13.10;99.90
23987;DHT22;12514;52.140;5.602;2022-09-25T19:34:30;13.10;99.90
23987;DHT22;12514;52.140;5.602;2022-09-25T19:36:56;13.10;99.90
23987;DHT22;12514;52.140;5.602;2022-09-25T19:39:22;13.10;99.90
23987;DHT22;12514;52.140;5.602;2022-09-25T19:41:57;13.10;99.90
23987;DHT22;12514;52.140;5.602;2022-09-25T19:44:22;12.90;99.90
23987;DHT22;12514;52.140;5.602;2022-09-25T19:46:49;12.80;99.90
23987;DHT22;12514;52.140;5.602;2022-09-25T19:49:16;12.90;99.90
23987;DHT22;12514;52.140;5.602;2022-09-25T19:51:42;12.80;99.90
23987;DHT22;12514;52.140;5.602;2022-09-25T19:54:14;12.70;99.90
23987;DHT22;12514;52.140;5.602;2022-09-25T19:56:40;12.70;99.90
23987;DHT22;12514;52.140;5.602;2022-09-25T19:59:14;12.70;99.90
23987;DHT22;12514;52.140;5.602;2022-09-25T20:01:40;12.70;99.90
23987;DHT22;12514;52.140;5.602;2022-09-25T20:04:08;12.70;99.90
23987;DHT22;12514;52.140;5.602;2022-09-25T20:06:34;12.70;99.90